sensor_id;sensor_type;location;lat;lon;timestamp;pressure;altitude;pressure_sealevel;temperature;humidity
54872;BME280;43914;57.680;11.982;2023-07-08T00:00:52;101323.88;;;14.99;100.00
54872;BME280;43914;57.680;11.982;2023-07-08T00:03:19;101327.80;;;14.99;100.00
54872;BME280;43914;57.680;11.982;2023-07-08T00:05:46;101324.00;;;14.97;100.00
54872;BME280;43914;57.680;11.982;2023-07-08T00:08:14;101326.31;;;14.96;100.00
54872;BME280;43914;57.680;11.982;2023-07-08T00:10:40;101328.80;;;14.95;100.00
54872;BME280;43914;57.680;11.982;2023-07-08T00:13:08;101331.05;;;14.94;100.00
54872;BME280;43914;57.680;11.982;2023-07-08T00:15:34;101330.35;;;14.93;100.00
54872;BME280;43914;57.680;11.982;2023-07-08T00:18:09;101331.46;;;14.91;100.00
54872;BME280;43914;57.680;11.982;2023-07-08T00:20:39;101331.36;;;14.89;100.00
54872;BME280;43914;57.680;11.982;2023-07-08T00:23:05;101334.52;;;14.87;100.00
54872;BME280;43914;57.680;11.982;2023-07-08T00:25:31;101334.17;;;14.84;100.00
54872;BME280;43914;57.680;11.982;2023-07-08T00:27:58;101336.52;;;14.83;100.00
54872;BME280;43914;57.680;11.982;2023-07-08T00:30:27;101335.92;;;14.81;100.00
54872;BME280;43914;57.680;11.982;2023-07-08T00:32:54;101336.34;;;14.81;100.00
54872;BME280;43914;57.680;11.982;2023-07-08T00:38:19;101328.74;;;14.79;100.00
54872;BME280;43914;57.680;11.982;2023-07-08T00:43:37;101326.64;;;14.77;100.00
54872;BME280;43914;57.680;11.982;2023-07-08T00:48:53;101324.30;;;14.75;100.00
54872;BME280;43914;57.680;11.982;2023-07-08T00:51:20;101325.69;;;14.76;100.00
54872;BME280;43914;57.680;11.982;2023-07-08T00:53:48;101323.95;;;14.75;100.00
54872;BME280;43914;57.680;11.982;2023-07-08T00:56:33;101327.39;;;14.75;100.00
54872;BME280;43914;57.680;11.982;2023-07-08T01:01:26;101324.27;;;14.74;100.00
54872;BME280;43914;57.680;11.982;2023-07-08T01:03:55;101327.64;;;14.75;100.00
54872;BME280;43914;57.680;11.982;2023-07-08T01:06:23;101330.23;;;14.76;100.00
54872;BME280;43914;57.680;11.982;2023-07-08T01:09:01;101328.27;;;14.77;100.00
54872;BME280;43914;57.680;11.982;2023-07-08T01:11:31;101329.28;;;14.76;100.00
54872;BME280;43914;57.680;11.982;2023-07-08T01:13:59;101332.92;;;14.76;100.00
54872;BME280;43914;57.680;11.982;2023-07-08T01:16:26;101332.13;;;14.75;100.00
54872;BME280;43914;57.680;11.982;2023-07-08T01:18:51;101332.05;;;14.74;100.00
54872;BME280;43914;57.680;11.982;2023-07-08T01:23:54;101323.02;;;14.73;100.00
54872;BME280;43914;57.680;11.982;2023-07-08T01:26:25;101323.14;;;14.70;100.00
54872;BME280;43914;57.680;11.982;2023-07-08T01:28:52;101323.55;;;14.69;100.00
54872;BME280;43914;57.680;11.982;2023-07-08T01:31:19;101323.48;;;14.67;100.00
54872;BME280;43914;57.680;11.982;2023-07-08T01:33:46;101324.19;;;14.66;100.00
54872;BME280;43914;57.680;11.982;2023-07-08T01:36:12;101323.05;;;14.65;100.00
54872;BME280;43914;57.680;11.982;2023-07-08T01:38:38;101319.02;;;14.65;100.00
54872;BME280;43914;57.680;11.982;2023-07-08T01:41:05;101328.27;;;14.66;100.00
54872;BME280;43914;57.680;11.982;2023-07-08T01:43:31;101328.05;;;14.66;100.00
54872;BME280;43914;57.680;11.982;2023-07-08T01:46:00;101328.27;;;14.66;100.00
54872;BME280;43914;57.680;11.982;2023-07-08T01:48:32;101328.35;;;14.67;100.00
54872;BME280;43914;57.680;11.982;2023-07-08T01:51:04;101323.73;;;14.66;100.00
54872;BME280;43914;57.680;11.982;2023-07-08T01:53:36;101324.65;;;14.66;100.00
54872;BME280;43914;57.680;11.982;2023-07-08T01:56:03;101326.44;;;14.66;100.00
54872;BME280;43914;57.680;11.982;2023-07-08T01:58:29;101327.27;;;14.66;100.00
54872;BME280;43914;57.680;11.982;2023-07-08T02:00:55;101327.97;;;14.66;100.00
54872;BME280;43914;57.680;11.982;2023-07-08T02:03:21;101328.78;;;14.65;100.00
54872;BME280;43914;57.680;11.982;2023-07-08T02:05:50;101322.78;;;14.64;100.00
54872;BME280;43914;57.680;11.982;2023-07-08T02:08:15;101324.79;;;14.64;100.00
54872;BME280;43914;57.680;11.982;2023-07-08T02:10:42;101328.04;;;14.64;100.00
54872;BME280;43914;57.680;11.982;2023-07-08T02:13:08;101322.38;;;14.63;100.00
54872;BME280;43914;57.680;11.982;2023-07-08T02:15:33;101320.98;;;14.63;100.00
54872;BME280;43914;57.680;11.982;2023-07-08T02:17:59;101320.27;;;14.61;100.00
54872;BME280;43914;57.680;11.982;2023-07-08T02:20:25;101320.48;;;14.60;100.00
54872;BME280;43914;57.680;11.982;2023-07-08T02:22:50;101320.17;;;14.58;100.00
54872;BME280;43914;57.680;11.982;2023-07-08T02:25:16;101326.29;;;14.56;100.00
54872;BME280;43914;57.680;11.982;2023-07-08T02:27:42;101328.81;;;14.55;100.00
54872;BME280;43914;57.680;11.982;2023-07-08T02:30:09;101327.27;;;14.53;100.00
54872;BME280;43914;57.680;11.982;2023-07-08T02:32:35;101328.15;;;14.50;100.00
54872;BME280;43914;57.680;11.982;2023-07-08T02:35:08;101329.80;;;14.50;100.00
54872;BME280;43914;57.680;11.982;2023-07-08T02:37:35;101331.62;;;14.48;100.00
54872;BME280;43914;57.680;11.982;2023-07-08T02:40:00;101331.54;;;14.48;100.00
54872;BME280;43914;57.680;11.982;2023-07-08T02:42:26;101332.36;;;14.47;100.00
54872;BME280;43914;57.680;11.982;2023-07-08T02:44:52;101327.61;;;14.46;100.00
54872;BME280;43914;57.680;11.982;2023-07-08T02:47:17;101333.88;;;14.45;100.00
54872;BME280;43914;57.680;11.982;2023-07-08T02:49:43;101331.00;;;14.43;100.00
54872;BME280;43914;57.680;11.982;2023-07-08T02:52:09;101324.23;;;14.41;100.00
54872;BME280;43914;57.680;11.982;2023-07-08T02:54:34;101322.17;;;14.40;100.00
54872;BME280;43914;57.680;11.982;2023-07-08T02:57:00;101319.35;;;14.37;100.00
54872;BME280;43914;57.680;11.982;2023-07-08T02:59:25;101322.23;;;14.34;100.00
54872;BME280;43914;57.680;11.982;2023-07-08T03:01:52;101322.34;;;14.29;100.00
54872;BME280;43914;57.680;11.982;2023-07-08T03:04:18;101319.64;;;14.23;100.00
54872;BME280;43914;57.680;11.982;2023-07-08T03:06:50;101319.96;;;14.22;100.00
54872;BME280;43914;57.680;11.982;2023-07-08T03:09:15;101316.35;;;14.22;100.00
54872;BME280;43914;57.680;11.982;2023-07-08T03:11:43;101322.72;;;14.22;100.00
54872;BME280;43914;57.680;11.982;2023-07-08T03:14:08;101322.92;;;14.22;100.00
54872;BME280;43914;57.680;11.982;2023-07-08T03:16:34;101323.75;;;14.22;100.00
54872;BME280;43914;57.680;11.982;2023-07-08T03:18:59;101326.73;;;14.21;100.00
54872;BME280;43914;57.680;11.982;2023-07-08T03:21:25;101332.65;;;14.20;100.00
54872;BME280;43914;57.680;11.982;2023-07-08T03:23:51;101330.27;;;14.20;100.00
54872;BME280;43914;57.680;11.982;2023-07-08T03:26:24;101329.15;;;14.21;100.00
54872;BME280;43914;57.680;11.982;2023-07-08T03:28:49;101328.95;;;14.18;100.00
54872;BME280;43914;57.680;11.982;2023-07-08T03:31:15;101329.07;;;14.17;100.00
54872;BME280;43914;57.680;11.982;2023-07-08T03:33:41;101327.85;;;14.15;100.00
54872;BME280;43914;57.680;11.982;2023-07-08T03:36:13;101330.87;;;14.14;100.00
54872;BME280;43914;57.680;11.982;2023-07-08T03:38:49;101334.89;;;14.13;100.00
54872;BME280;43914;57.680;11.982;2023-07-08T03:41:15;101336.40;;;14.13;100.00
54872;BME280;43914;57.680;11.982;2023-07-08T03:43:41;101335.00;;;14.16;100.00
54872;BME280;43914;57.680;11.982;2023-07-08T03:46:11;101336.27;;;14.20;100.00
54872;BME280;43914;57.680;11.982;2023-07-08T03:48:38;101333.73;;;14.23;100.00
54872;BME280;43914;57.680;11.982;2023-07-08T03:51:04;101336.98;;;14.26;100.00
54872;BME280;43914;57.680;11.982;2023-07-08T03:53:32;101336.98;;;14.28;100.00
54872;BME280;43914;57.680;11.982;2023-07-08T03:55:58;101338.01;;;14.29;100.00
54872;BME280;43914;57.680;11.982;2023-07-08T03:58:23;101339.27;;;14.27;100.00
54872;BME280;43914;57.680;11.982;2023-07-08T04:00:49;101341.56;;;14.27;100.00
54872;BME280;43914;57.680;11.982;2023-07-08T04:03:14;101344.04;;;14.25;100.00
54872;BME280;43914;57.680;11.982;2023-07-08T04:05:40;101343.94;;;14.24;100.00
54872;BME280;43914;57.680;11.982;2023-07-08T04:08:05;101339.91;;;14.20;100.00
54872;BME280;43914;57.680;11.982;2023-07-08T04:10:30;101349.84;;;14.18;100.00
54872;BME280;43914;57.680;11.982;2023-07-08T04:12:56;101345.23;;;14.16;100.00
54872;BME280;43914;57.680;11.982;2023-07-08T04:15:21;101347.02;;;14.15;100.00
54872;BME280;43914;57.680;11.982;2023-07-08T04:17:51;101349.89;;;14.12;100.00
54872;BME280;43914;57.680;11.982;2023-07-08T04:20:18;101352.80;;;14.10;100.00
54872;BME280;43914;57.680;11.982;2023-07-08T04:22:45;101359.32;;;14.10;100.00
54872;BME280;43914;57.680;11.982;2023-07-08T04:25:12;101368.60;;;14.10;100.00
54872;BME280;43914;57.680;11.982;2023-07-08T04:27:40;101364.84;;;14.09;100.00
54872;BME280;43914;57.680;11.982;2023-07-08T04:30:06;101365.77;;;14.10;100.00
54872;BME280;43914;57.680;11.982;2023-07-08T04:32:35;101364.20;;;14.11;100.00
54872;BME280;43914;57.680;11.982;2023-07-08T04:35:03;101364.54;;;14.13;100.00
54872;BME280;43914;57.680;11.982;2023-07-08T04:37:28;101360.11;;;14.15;100.00
54872;BME280;43914;57.680;11.982;2023-07-08T04:39:54;101364.86;;;14.19;100.00
54872;BME280;43914;57.680;11.982;2023-07-08T04:42:19;101363.77;;;14.22;100.00
54872;BME280;43914;57.680;11.982;2023-07-08T04:44:45;101367.80;;;14.26;100.00
54872;BME280;43914;57.680;11.982;2023-07-08T04:47:10;101370.65;;;14.30;100.00
54872;BME280;43914;57.680;11.982;2023-07-08T04:49:40;101370.77;;;14.37;100.00
54872;BME280;43914;57.680;11.982;2023-07-08T04:52:09;101373.11;;;14.44;100.00
54872;BME280;43914;57.680;11.982;2023-07-08T04:54:34;101370.55;;;14.52;100.00
54872;BME280;43914;57.680;11.982;2023-07-08T04:57:00;101372.36;;;14.59;100.00
54872;BME280;43914;57.680;11.982;2023-07-08T04:59:26;101372.60;;;14.67;100.00
54872;BME280;43914;57.680;11.982;2023-07-08T05:01:52;101375.77;;;14.76;100.00
54872;BME280;43914;57.680;11.982;2023-07-08T05:04:20;101368.27;;;14.85;100.00
54872;BME280;43914;57.680;11.982;2023-07-08T05:06:46;101366.02;;;14.93;100.00
54872;BME280;43914;57.680;11.982;2023-07-08T05:09:11;101368.59;;;15.00;100.00
54872;BME280;43914;57.680;11.982;2023-07-08T05:11:37;101371.13;;;15.08;100.00
54872;BME280;43914;57.680;11.982;2023-07-08T05:14:03;101371.99;;;15.16;100.00
54872;BME280;43914;57.680;11.982;2023-07-08T05:16:29;101370.29;;;15.23;100.00
54872;BME280;43914;57.680;11.982;2023-07-08T05:18:55;101369.28;;;15.30;100.00
54872;BME280;43914;57.680;11.982;2023-07-08T05:21:21;101376.20;;;15.38;100.00
54872;BME280;43914;57.680;11.982;2023-07-08T05:23:47;101374.98;;;15.44;100.00
54872;BME280;43914;57.680;11.982;2023-07-08T05:26:17;101376.42;;;15.50;100.00
54872;BME280;43914;57.680;11.982;2023-07-08T05:28:42;101381.06;;;15.56;100.00
54872;BME280;43914;57.680;11.982;2023-07-08T05:31:08;101379.23;;;15.62;100.00
54872;BME280;43914;57.680;11.982;2023-07-08T05:33:34;101377.13;;;15.68;100.00
54872;BME280;43914;57.680;11.982;2023-07-08T05:36:00;101375.66;;;15.72;100.00
54872;BME280;43914;57.680;11.982;2023-07-08T05:38:26;101376.32;;;15.79;100.00
54872;BME280;43914;57.680;11.982;2023-07-08T05:40:56;101381.38;;;15.84;99.93
54872;BME280;43914;57.680;11.982;2023-07-08T05:43:22;101380.13;;;15.88;99.22
54872;BME280;43914;57.680;11.982;2023-07-08T05:45:47;101382.58;;;15.93;98.93
54872;BME280;43914;57.680;11.982;2023-07-08T05:48:13;101379.63;;;15.99;98.72
54872;BME280;43914;57.680;11.982;2023-07-08T05:50:40;101383.75;;;16.02;97.89
54872;BME280;43914;57.680;11.982;2023-07-08T05:53:09;101385.67;;;16.04;97.44
54872;BME280;43914;57.680;11.982;2023-07-08T05:55:35;101386.98;;;16.06;96.55
54872;BME280;43914;57.680;11.982;2023-07-08T05:58:00;101386.33;;;16.08;96.65
54872;BME280;43914;57.680;11.982;2023-07-08T06:00:26;101389.70;;;16.11;96.44
54872;BME280;43914;57.680;11.982;2023-07-08T06:02:52;101393.55;;;16.17;96.52
54872;BME280;43914;57.680;11.982;2023-07-08T06:05:17;101395.14;;;16.21;96.36
54872;BME280;43914;57.680;11.982;2023-07-08T06:07:43;101391.65;;;16.28;95.80
54872;BME280;43914;57.680;11.982;2023-07-08T06:10:08;101391.95;;;16.33;95.09
54872;BME280;43914;57.680;11.982;2023-07-08T06:12:34;101391.67;;;16.39;94.89
54872;BME280;43914;57.680;11.982;2023-07-08T06:14:59;101389.04;;;16.45;94.75
54872;BME280;43914;57.680;11.982;2023-07-08T06:17:26;101389.80;;;16.51;94.28
54872;BME280;43914;57.680;11.982;2023-07-08T06:19:51;101396.10;;;16.56;94.13
54872;BME280;43914;57.680;11.982;2023-07-08T06:22:17;101398.52;;;16.61;93.81
54872;BME280;43914;57.680;11.982;2023-07-08T06:24:42;101400.19;;;16.64;93.39
54872;BME280;43914;57.680;11.982;2023-07-08T06:27:08;101401.27;;;16.68;92.48
54872;BME280;43914;57.680;11.982;2023-07-08T06:29:34;101401.37;;;16.73;92.31
54872;BME280;43914;57.680;11.982;2023-07-08T06:32:03;101401.23;;;16.80;91.55
54872;BME280;43914;57.680;11.982;2023-07-08T06:34:28;101404.56;;;16.88;91.34
54872;BME280;43914;57.680;11.982;2023-07-08T06:36:54;101403.44;;;16.97;90.52
54872;BME280;43914;57.680;11.982;2023-07-08T06:39:19;101403.74;;;17.06;90.07
54872;BME280;43914;57.680;11.982;2023-07-08T06:41:45;101405.31;;;17.12;88.50
54872;BME280;43914;57.680;11.982;2023-07-08T06:44:11;101404.77;;;17.15;86.73
54872;BME280;43914;57.680;11.982;2023-07-08T06:46:37;101403.67;;;17.19;85.90
54872;BME280;43914;57.680;11.982;2023-07-08T06:49:03;101408.97;;;17.26;84.89
54872;BME280;43914;57.680;11.982;2023-07-08T06:51:29;101409.63;;;17.31;84.36
54872;BME280;43914;57.680;11.982;2023-07-08T06:53:54;101408.86;;;17.33;85.14
54872;BME280;43914;57.680;11.982;2023-07-08T06:56:20;101404.39;;;17.35;84.31
54872;BME280;43914;57.680;11.982;2023-07-08T06:58:46;101408.31;;;17.38;85.30
54872;BME280;43914;57.680;11.982;2023-07-08T07:01:12;101410.40;;;17.51;86.10
54872;BME280;43914;57.680;11.982;2023-07-08T07:03:37;101409.52;;;17.59;85.95
54872;BME280;43914;57.680;11.982;2023-07-08T07:06:03;101409.95;;;17.68;84.87
54872;BME280;43914;57.680;11.982;2023-07-08T07:08:29;101407.87;;;17.77;84.37
54872;BME280;43914;57.680;11.982;2023-07-08T07:10:54;101407.84;;;17.82;83.32
54872;BME280;43914;57.680;11.982;2023-07-08T07:13:20;101409.88;;;17.87;82.42
54872;BME280;43914;57.680;11.982;2023-07-08T07:15:48;101412.96;;;17.88;81.21
54872;BME280;43914;57.680;11.982;2023-07-08T07:18:14;101409.44;;;17.89;80.62
54872;BME280;43914;57.680;11.982;2023-07-08T07:20:47;101409.27;;;17.90;80.04
54872;BME280;43914;57.680;11.982;2023-07-08T07:23:14;101407.95;;;17.93;79.32
54872;BME280;43914;57.680;11.982;2023-07-08T07:25:39;101410.39;;;17.94;79.36
54872;BME280;43914;57.680;11.982;2023-07-08T07:28:04;101408.50;;;17.93;77.86
54872;BME280;43914;57.680;11.982;2023-07-08T07:30:30;101408.40;;;17.88;76.85
54872;BME280;43914;57.680;11.982;2023-07-08T07:32:59;101409.36;;;17.85;76.79
54872;BME280;43914;57.680;11.982;2023-07-08T07:35:25;101410.27;;;17.82;77.06
54872;BME280;43914;57.680;11.982;2023-07-08T07:37:50;101413.39;;;17.82;77.13
54872;BME280;43914;57.680;11.982;2023-07-08T07:40:16;101411.42;;;17.79;76.64
54872;BME280;43914;57.680;11.982;2023-07-08T07:42:44;101409.95;;;17.79;76.42
54872;BME280;43914;57.680;11.982;2023-07-08T07:45:10;101410.04;;;17.81;76.85
54872;BME280;43914;57.680;11.982;2023-07-08T07:47:36;101409.59;;;17.84;76.55
54872;BME280;43914;57.680;11.982;2023-07-08T07:50:06;101409.17;;;17.84;76.31
54872;BME280;43914;57.680;11.982;2023-07-08T07:52:32;101411.33;;;17.88;75.99
54872;BME280;43914;57.680;11.982;2023-07-08T07:54:57;101410.77;;;17.90;74.60
54872;BME280;43914;57.680;11.982;2023-07-08T07:57:23;101406.95;;;17.91;74.38
54872;BME280;43914;57.680;11.982;2023-07-08T07:59:49;101407.31;;;17.94;73.67
54872;BME280;43914;57.680;11.982;2023-07-08T08:02:18;101409.16;;;17.99;73.91
54872;BME280;43914;57.680;11.982;2023-07-08T08:04:44;101406.63;;;18.00;73.45
54872;BME280;43914;57.680;11.982;2023-07-08T08:07:10;101406.76;;;18.01;73.82
54872;BME280;43914;57.680;11.982;2023-07-08T08:09:36;101402.98;;;18.05;73.01
54872;BME280;43914;57.680;11.982;2023-07-08T08:12:03;101405.86;;;18.08;72.34
54872;BME280;43914;57.680;11.982;2023-07-08T08:14:29;101404.83;;;18.13;71.99
54872;BME280;43914;57.680;11.982;2023-07-08T08:16:55;101407.80;;;18.19;71.20
54872;BME280;43914;57.680;11.982;2023-07-08T08:19:21;101419.90;;;18.26;70.31
54872;BME280;43914;57.680;11.982;2023-07-08T08:21:47;101417.30;;;18.26;70.27
54872;BME280;43914;57.680;11.982;2023-07-08T08:24:13;101413.41;;;18.26;70.80
54872;BME280;43914;57.680;11.982;2023-07-08T08:26:38;101415.74;;;18.28;71.13
54872;BME280;43914;57.680;11.982;2023-07-08T08:29:04;101414.27;;;18.29;71.13
54872;BME280;43914;57.680;11.982;2023-07-08T08:31:29;101416.17;;;18.32;70.92
54872;BME280;43914;57.680;11.982;2023-07-08T08:33:56;101421.73;;;18.32;71.06
54872;BME280;43914;57.680;11.982;2023-07-08T08:36:22;101418.98;;;18.32;72.60
54872;BME280;43914;57.680;11.982;2023-07-08T08:38:47;101423.52;;;18.36;71.93
54872;BME280;43914;57.680;11.982;2023-07-08T08:41:16;101422.70;;;18.41;71.76
54872;BME280;43914;57.680;11.982;2023-07-08T08:43:43;101423.54;;;18.45;71.15
54872;BME280;43914;57.680;11.982;2023-07-08T08:49:35;101424.83;;;18.51;71.02
54872;BME280;43914;57.680;11.982;2023-07-08T08:52:03;101420.50;;;18.52;71.71
54872;BME280;43914;57.680;11.982;2023-07-08T08:54:30;101416.37;;;18.56;71.14
54872;BME280;43914;57.680;11.982;2023-07-08T08:59:50;101423.70;;;18.63;69.76
54872;BME280;43914;57.680;11.982;2023-07-08T09:04:54;101430.03;;;18.57;67.79
54872;BME280;43914;57.680;11.982;2023-07-08T09:07:21;101431.33;;;18.62;69.07
54872;BME280;43914;57.680;11.982;2023-07-08T09:10:07;101437.55;;;18.69;68.26
54872;BME280;43914;57.680;11.982;2023-07-08T09:12:35;101443.80;;;18.73;67.51
54872;BME280;43914;57.680;11.982;2023-07-08T09:15:11;101445.23;;;18.74;67.37
54872;BME280;43914;57.680;11.982;2023-07-08T09:17:38;101445.76;;;18.70;66.83
54872;BME280;43914;57.680;11.982;2023-07-08T09:20:23;101450.23;;;18.65;66.26
54872;BME280;43914;57.680;11.982;2023-07-08T09:22:57;101445.14;;;18.63;65.64
54872;BME280;43914;57.680;11.982;2023-07-08T09:25:44;101442.56;;;18.61;64.17
54872;BME280;43914;57.680;11.982;2023-07-08T09:28:14;101436.91;;;18.61;63.54
54872;BME280;43914;57.680;11.982;2023-07-08T09:30:39;101436.18;;;18.63;63.35
54872;BME280;43914;57.680;11.982;2023-07-08T09:33:07;101440.89;;;18.71;63.90
54872;BME280;43914;57.680;11.982;2023-07-08T09:35:43;101442.45;;;18.74;62.95
54872;BME280;43914;57.680;11.982;2023-07-08T09:38:16;101439.45;;;18.77;62.59
54872;BME280;43914;57.680;11.982;2023-07-08T09:40:53;101438.20;;;18.81;63.34
54872;BME280;43914;57.680;11.982;2023-07-08T09:43:30;101442.36;;;18.85;63.23
54872;BME280;43914;57.680;11.982;2023-07-08T09:46:01;101443.05;;;18.87;62.62
54872;BME280;43914;57.680;11.982;2023-07-08T09:48:29;101445.83;;;18.88;62.15
54872;BME280;43914;57.680;11.982;2023-07-08T09:50:59;101442.38;;;18.94;62.54
54872;BME280;43914;57.680;11.982;2023-07-08T09:53:25;101445.70;;;18.97;61.61
54872;BME280;43914;57.680;11.982;2023-07-08T09:55:59;101448.15;;;18.90;60.23
54872;BME280;43914;57.680;11.982;2023-07-08T09:58:39;101441.27;;;18.86;61.81
54872;BME280;43914;57.680;11.982;2023-07-08T10:01:25;101440.79;;;18.93;62.83
54872;BME280;43914;57.680;11.982;2023-07-08T10:03:58;101444.50;;;18.96;62.24
54872;BME280;43914;57.680;11.982;2023-07-08T10:06:32;101441.52;;;19.00;62.38
54872;BME280;43914;57.680;11.982;2023-07-08T10:09:02;101443.81;;;19.05;62.70
54872;BME280;43914;57.680;11.982;2023-07-08T10:11:31;101441.80;;;19.09;62.82
54872;BME280;43914;57.680;11.982;2023-07-08T10:14:05;101443.46;;;19.15;63.33
54872;BME280;43914;57.680;11.982;2023-07-08T10:16:33;101442.24;;;19.25;63.05
54872;BME280;43914;57.680;11.982;2023-07-08T10:19:00;101446.13;;;19.33;62.86
54872;BME280;43914;57.680;11.982;2023-07-08T10:24:50;101446.76;;;19.34;62.91
54872;BME280;43914;57.680;11.982;2023-07-08T10:27:37;101444.36;;;19.36;63.01
54872;BME280;43914;57.680;11.982;2023-07-08T10:30:37;101442.80;;;19.42;63.75
54872;BME280;43914;57.680;11.982;2023-07-08T10:33:31;101449.09;;;19.52;63.92
54872;BME280;43914;57.680;11.982;2023-07-08T10:41:14;101446.42;;;19.60;64.03
54872;BME280;43914;57.680;11.982;2023-07-08T10:43:57;101440.94;;;19.60;64.02
54872;BME280;43914;57.680;11.982;2023-07-08T11:05:45;101447.72;;;20.00;63.80
54872;BME280;43914;57.680;11.982;2023-07-08T11:08:20;101449.25;;;20.05;62.62
54872;BME280;43914;57.680;11.982;2023-07-08T11:10:56;101450.35;;;20.07;62.50
54872;BME280;43914;57.680;11.982;2023-07-08T11:13:27;101447.38;;;20.14;62.26
54872;BME280;43914;57.680;11.982;2023-07-08T11:16:02;101452.38;;;20.25;61.95
54872;BME280;43914;57.680;11.982;2023-07-08T11:21:06;101447.69;;;20.39;60.11
54872;BME280;43914;57.680;11.982;2023-07-08T11:23:47;101450.45;;;20.51;60.50
54872;BME280;43914;57.680;11.982;2023-07-08T11:26:24;101449.88;;;20.58;60.18
54872;BME280;43914;57.680;11.982;2023-07-08T11:28:57;101449.55;;;20.63;60.05
54872;BME280;43914;57.680;11.982;2023-07-08T11:31:26;101452.05;;;20.71;59.30
54872;BME280;43914;57.680;11.982;2023-07-08T11:33:53;101451.20;;;20.80;58.56
54872;BME280;43914;57.680;11.982;2023-07-08T11:36:21;101456.10;;;20.88;58.38
54872;BME280;43914;57.680;11.982;2023-07-08T11:38:49;101453.16;;;20.93;57.84
54872;BME280;43914;57.680;11.982;2023-07-08T11:41:18;101453.71;;;21.00;58.01
54872;BME280;43914;57.680;11.982;2023-07-08T11:46:21;101446.54;;;21.02;56.30
54872;BME280;43914;57.680;11.982;2023-07-08T11:48:52;101445.94;;;21.09;56.36
54872;BME280;43914;57.680;11.982;2023-07-08T11:51:32;101440.70;;;21.15;56.47
54872;BME280;43914;57.680;11.982;2023-07-08T11:59:26;101439.44;;;21.47;55.15
54872;BME280;43914;57.680;11.982;2023-07-08T12:02:02;101449.62;;;21.62;54.78
54872;BME280;43914;57.680;11.982;2023-07-08T12:04:51;101445.71;;;21.77;54.71
54872;BME280;43914;57.680;11.982;2023-07-08T12:07:20;101447.25;;;21.96;53.93
54872;BME280;43914;57.680;11.982;2023-07-08T12:09:58;101446.70;;;22.08;52.92
54872;BME280;43914;57.680;11.982;2023-07-08T12:12:30;101448.67;;;22.20;52.54
54872;BME280;43914;57.680;11.982;2023-07-08T12:15:50;101452.91;;;22.36;52.19
54872;BME280;43914;57.680;11.982;2023-07-08T12:17:52;101453.92;;;22.40;51.00
54872;BME280;43914;57.680;11.982;2023-07-08T12:20:23;101449.20;;;22.48;50.92
54872;BME280;43914;57.680;11.982;2023-07-08T12:22:50;101442.77;;;22.57;51.18
54872;BME280;43914;57.680;11.982;2023-07-08T12:25:19;101450.80;;;22.67;49.35
54872;BME280;43914;57.680;11.982;2023-07-08T12:27:46;101452.52;;;22.66;47.09
54872;BME280;43914;57.680;11.982;2023-07-08T12:30:13;101450.94;;;22.67;46.97
54872;BME280;43914;57.680;11.982;2023-07-08T12:32:40;101451.94;;;22.78;47.32
54872;BME280;43914;57.680;11.982;2023-07-08T12:35:24;101453.55;;;22.89;46.47
54872;BME280;43914;57.680;11.982;2023-07-08T12:37:52;101451.97;;;22.96;46.18
54872;BME280;43914;57.680;11.982;2023-07-08T12:40:21;101448.13;;;23.00;46.14
54872;BME280;43914;57.680;11.982;2023-07-08T12:42:47;101449.52;;;23.02;46.23
54872;BME280;43914;57.680;11.982;2023-07-08T12:45:17;101452.52;;;23.01;46.57
54872;BME280;43914;57.680;11.982;2023-07-08T12:47:45;101447.79;;;23.00;46.15
54872;BME280;43914;57.680;11.982;2023-07-08T12:50:11;101446.19;;;23.06;46.42
54872;BME280;43914;57.680;11.982;2023-07-08T12:52:37;101443.35;;;23.18;46.50
54872;BME280;43914;57.680;11.982;2023-07-08T12:55:03;101435.12;;;23.36;46.66
54872;BME280;43914;57.680;11.982;2023-07-08T12:57:29;101436.02;;;23.59;46.10
54872;BME280;43914;57.680;11.982;2023-07-08T12:59:55;101428.08;;;23.75;45.29
54872;BME280;43914;57.680;11.982;2023-07-08T13:02:21;101420.16;;;23.85;45.47
54872;BME280;43914;57.680;11.982;2023-07-08T13:04:51;101421.74;;;23.97;45.36
54872;BME280;43914;57.680;11.982;2023-07-08T13:07:33;101417.98;;;24.15;45.22
54872;BME280;43914;57.680;11.982;2023-07-08T13:09:59;101422.58;;;24.41;45.16
54872;BME280;43914;57.680;11.982;2023-07-08T13:12:26;101423.23;;;24.62;44.12
54872;BME280;43914;57.680;11.982;2023-07-08T13:14:53;101414.92;;;24.73;43.45
54872;BME280;43914;57.680;11.982;2023-07-08T13:17:21;101420.90;;;24.93;42.76
54872;BME280;43914;57.680;11.982;2023-07-08T13:19:48;101418.25;;;25.09;42.85
54872;BME280;43914;57.680;11.982;2023-07-08T13:22:19;101419.31;;;25.24;41.84
54872;BME280;43914;57.680;11.982;2023-07-08T13:24:46;101419.34;;;25.48;42.18
54872;BME280;43914;57.680;11.982;2023-07-08T13:27:32;101421.13;;;25.69;41.56
54872;BME280;43914;57.680;11.982;2023-07-08T13:30:16;101421.80;;;25.88;40.26
54872;BME280;43914;57.680;11.982;2023-07-08T13:32:42;101418.35;;;26.00;39.13
54872;BME280;43914;57.680;11.982;2023-07-08T13:35:40;101416.39;;;26.11;38.97
54872;BME280;43914;57.680;11.982;2023-07-08T13:38:14;101417.15;;;26.30;39.04
54872;BME280;43914;57.680;11.982;2023-07-08T13:41:03;101418.59;;;26.61;39.48
54872;BME280;43914;57.680;11.982;2023-07-08T13:43:35;101417.08;;;26.92;38.10